Warrensburg, MO

2:35 AM CDT on August 29, 2015 (GMT -0500)
Rolling Hills = Jay's Weather Station | | Change Station
CLOSE
Current Station
Personal Weather Station
Location: Warrensburg, MO
Elevation: 863 ft
Nearby Weather Stations

Elev 863 ft 38.73 °N, 93.66 °W | Updated 15 minutes ago

Overcast
Overcast
70.3 °F
Feels Like 70.3 °F
N
1.7
Wind Variable Wind from South

Today
High -- | Low -- °F
--% Chance of Precip.
Yesterday
High -- | Low -- °F
Precip. -- in
6:41 AM 7:49 PM
Full, 100% visible
Pressure 29.94 in
Visibility 10.0 miles
Clouds Scattered Clouds 4600 ft
Mostly Cloudy 5500 ft
Dew Point 65 °F
Humidity 84%
Rainfall 0.00 in
Snow Depth Not available.
UV 0 out of 12
Pollen 4.70 out of 12
Air Quality Not available.
Flu Activity Not available.
METAR KRCM 290715Z AUTO 17005KT 10SM SCT046 BKN055 21/18 A2994 RMK AO2
Pressure 29.94 in
Visibility 10.0 miles
Clouds Scattered Clouds 4600 ft
Mostly Cloudy 5500 ft
Dew Point 65 °F
Humidity 84%
Rainfall 0.00 in
Snow Depth Not available.
UV 0 out of 12
Pollen 4.70 out of 12
Air Quality Not available.
Flu Activity Not available.
METAR KRCM 290715Z AUTO 17005KT 10SM SCT046 BKN055 21/18 A2994 RMK AO2

10-Day Weather Forecast

×

Almanac

Astronomy

Aug. 29, 2015 Rise Set
Actual Time
Civil Twilight
Nautical Twilight
Astronomical Twilight
Moon
Length of Visible Light
Length of Day
Tomorrow will be .
, % of the Moon is Illuminated

Today's Extremes

State Highs State Lows

Community

WunderPhotos

Upload Photos

1,850,634 photos uploaded!

WunderBlogs® & News

Nearby

Air Quality

  Air Quality AQ Index Pollutant
Not available.

Snow Depth

Station Depth Elevation

Earthquake Activity

City Distance Mag. Time & Date
Minimum magnitude displayed is 2.5.

Coastal Water Temperatures

Place Temperature

Stations

Nearby Weather Stations

Station Location Temp. Windchill Dew Point Humidity Wind Precip. Elev Updated Type